createdAt,value
2023-08-13T00:01:52.394Z,27.68
2023-08-13T00:04:18.982Z,27.78
2023-08-13T00:06:45.578Z,27.76
2023-08-13T00:09:11.954Z,27.78
2023-08-13T00:11:38.335Z,27.75
2023-08-13T00:14:04.778Z,27.73
2023-08-13T00:16:31.267Z,27.60
2023-08-13T00:18:57.672Z,27.68
2023-08-13T00:21:24.029Z,27.75
2023-08-13T00:23:50.404Z,27.70
2023-08-13T00:26:16.817Z,27.67
2023-08-13T00:28:43.284Z,27.69
2023-08-13T00:31:09.680Z,27.56
2023-08-13T00:33:36.172Z,27.67
2023-08-13T00:36:02.554Z,27.67
2023-08-13T00:38:29.129Z,27.62
2023-08-13T00:40:55.524Z,27.54
2023-08-13T00:43:21.963Z,27.62
2023-08-13T00:45:48.349Z,27.74
2023-08-13T00:48:14.777Z,27.68
2023-08-13T00:50:41.153Z,27.67
2023-08-13T00:53:07.525Z,27.64
2023-08-13T00:55:33.902Z,27.67
2023-08-13T00:58:00.293Z,27.60
2023-08-13T01:00:26.683Z,27.59
2023-08-13T01:02:53.142Z,27.63
2023-08-13T01:05:19.656Z,27.60
2023-08-13T01:07:46.056Z,27.56
2023-08-13T01:10:12.434Z,27.61
2023-08-13T01:12:38.861Z,27.57
2023-08-13T01:15:05.263Z,27.66
2023-08-13T01:17:31.664Z,27.58
2023-08-13T01:19:58.074Z,27.60
2023-08-13T01:22:24.509Z,27.60
2023-08-13T01:24:50.936Z,27.56
2023-08-13T01:27:17.316Z,27.51
2023-08-13T01:29:43.754Z,27.55
2023-08-13T01:32:10.153Z,27.51
2023-08-13T01:34:36.555Z,27.54
2023-08-13T01:37:02.978Z,27.60
2023-08-13T01:39:29.378Z,27.52
2023-08-13T01:41:55.964Z,27.50
2023-08-13T01:44:22.396Z,27.48
2023-08-13T01:46:48.856Z,27.61
2023-08-13T01:49:15.285Z,27.47
2023-08-13T01:51:41.655Z,27.59
2023-08-13T01:54:08.013Z,27.54
2023-08-13T01:56:34.378Z,27.45
2023-08-13T01:59:00.798Z,27.46
2023-08-13T02:01:27.214Z,27.58
2023-08-13T02:03:53.679Z,27.53
2023-08-13T02:06:20.057Z,27.48
2023-08-13T02:08:46.468Z,27.48
2023-08-13T02:11:12.855Z,27.53
2023-08-13T02:13:39.289Z,27.47
2023-08-13T02:16:05.731Z,27.52
2023-08-13T02:18:32.180Z,27.48
2023-08-13T02:20:58.616Z,27.46
2023-08-13T02:23:25.128Z,27.42
2023-08-13T02:25:51.586Z,27.43
2023-08-13T02:28:17.941Z,27.43
2023-08-13T02:30:44.367Z,27.47
2023-08-13T02:33:10.853Z,27.43
2023-08-13T02:35:37.270Z,27.42
2023-08-13T02:38:03.708Z,27.38
2023-08-13T02:40:30.078Z,27.43
2023-08-13T02:42:56.502Z,27.38
2023-08-13T02:45:22.986Z,27.45
2023-08-13T02:47:49.417Z,27.46
2023-08-13T02:50:15.938Z,27.39
2023-08-13T02:52:42.341Z,27.34
2023-08-13T02:55:08.786Z,27.38
2023-08-13T02:57:40.212Z,27.43
2023-08-13T03:00:10.090Z,27.42
2023-08-13T03:02:36.547Z,27.32
2023-08-13T03:05:02.962Z,27.34
2023-08-13T03:07:29.432Z,27.37
2023-08-13T03:09:55.824Z,27.37
2023-08-13T03:12:22.201Z,27.37
2023-08-13T03:14:48.600Z,27.38
2023-08-13T03:17:15.030Z,27.42
2023-08-13T03:19:41.380Z,27.35
2023-08-13T03:22:07.760Z,27.24
2023-08-13T03:24:34.211Z,27.24
2023-08-13T03:27:00.638Z,27.23
2023-08-13T03:29:27.069Z,27.22
2023-08-13T03:31:53.522Z,27.34
2023-08-13T03:34:19.934Z,27.32
2023-08-13T03:36:46.342Z,27.36
2023-08-13T03:39:12.753Z,27.33
2023-08-13T03:41:39.183Z,27.30
2023-08-13T03:44:05.568Z,27.35
2023-08-13T03:46:31.971Z,27.34
2023-08-13T03:48:58.365Z,27.34
2023-08-13T03:51:24.780Z,27.37
2023-08-13T03:53:51.159Z,27.37
2023-08-13T03:56:17.543Z,27.21
2023-08-13T03:58:43.978Z,27.28
2023-08-13T04:01:10.572Z,27.31
2023-08-13T04:03:37.196Z,27.21
2023-08-13T04:06:03.648Z,27.26
2023-08-13T04:08:30.072Z,27.30
2023-08-13T04:10:56.482Z,27.22
2023-08-13T04:13:22.908Z,27.28
2023-08-13T04:15:49.455Z,27.30
2023-08-13T04:18:15.876Z,27.21
2023-08-13T04:20:42.265Z,27.18
2023-08-13T04:23:08.684Z,27.25
2023-08-13T04:25:35.033Z,27.21
2023-08-13T04:28:01.459Z,27.13
2023-08-13T04:30:27.870Z,27.15
2023-08-13T04:32:54.274Z,27.10
2023-08-13T04:35:20.733Z,27.13
2023-08-13T04:37:47.154Z,27.22
2023-08-13T04:40:13.538Z,27.10
2023-08-13T04:42:40.017Z,27.10
2023-08-13T04:45:06.428Z,27.18
2023-08-13T04:47:32.827Z,27.20
2023-08-13T04:49:59.243Z,27.14
2023-08-13T04:52:25.598Z,27.09
2023-08-13T04:54:51.996Z,27.17
2023-08-13T04:57:18.408Z,27.04
2023-08-13T04:59:44.842Z,27.08
2023-08-13T05:02:11.251Z,27.04
2023-08-13T05:04:37.684Z,27.06
2023-08-13T05:07:04.093Z,27.11
2023-08-13T05:09:30.631Z,27.13
2023-08-13T05:11:57.049Z,26.96
2023-08-13T05:14:23.501Z,27.06
2023-08-13T05:16:49.907Z,27.03
2023-08-13T05:19:16.264Z,26.99
2023-08-13T05:21:42.652Z,27.07
2023-08-13T05:24:09.028Z,27.08
2023-08-13T05:26:35.406Z,27.09
2023-08-13T05:29:01.812Z,27.10
2023-08-13T05:31:28.226Z,27.05
2023-08-13T05:33:54.698Z,27.01
2023-08-13T05:36:21.075Z,27.01
2023-08-13T05:38:47.467Z,27.09
2023-08-13T05:41:13.868Z,26.77
2023-08-13T05:43:40.290Z,26.50
2023-08-13T05:46:06.709Z,26.49
2023-08-13T05:48:33.137Z,26.51
2023-08-13T05:50:59.518Z,26.71
2023-08-13T05:53:25.923Z,26.99
2023-08-13T05:55:52.318Z,27.03
2023-08-13T05:58:18.685Z,27.11
2023-08-13T06:00:45.159Z,27.12
2023-08-13T06:03:11.707Z,27.09
2023-08-13T06:05:38.175Z,27.00
2023-08-13T06:08:04.539Z,27.00
2023-08-13T06:10:30.914Z,27.11
2023-08-13T06:12:57.285Z,27.11
2023-08-13T06:15:23.665Z,27.13
2023-08-13T06:17:50.172Z,27.14
2023-08-13T06:20:16.548Z,27.06
2023-08-13T06:22:43.050Z,27.10
2023-08-13T06:25:09.493Z,27.09
2023-08-13T06:27:35.850Z,27.10
2023-08-13T06:30:10.397Z,27.03
2023-08-13T06:32:37.815Z,27.01
2023-08-13T06:35:04.295Z,27.05
2023-08-13T06:37:30.656Z,27.06
2023-08-13T06:39:57.062Z,27.05
2023-08-13T06:42:23.412Z,27.11
2023-08-13T06:44:49.765Z,27.12
2023-08-13T06:47:16.150Z,27.00
2023-08-13T06:49:42.538Z,27.09
2023-08-13T06:52:08.995Z,27.12
2023-08-13T06:54:35.389Z,27.04
2023-08-13T06:57:03.002Z,27.10
2023-08-13T06:59:29.435Z,27.13
2023-08-13T07:01:55.862Z,26.97
2023-08-13T07:04:22.318Z,27.11
2023-08-13T07:06:48.766Z,27.05
2023-08-13T07:09:15.171Z,27.21
2023-08-13T07:11:41.591Z,27.09
2023-08-13T07:14:07.970Z,27.02
2023-08-13T07:16:34.414Z,27.08
2023-08-13T07:19:00.867Z,27.23
2023-08-13T07:21:27.312Z,27.22
2023-08-13T07:23:53.680Z,27.32
2023-08-13T07:26:20.106Z,27.25
2023-08-13T07:28:46.502Z,27.29
2023-08-13T07:31:12.910Z,27.15
2023-08-13T07:33:39.300Z,27.10
2023-08-13T07:36:05.692Z,27.11
2023-08-13T07:38:32.130Z,27.16
2023-08-13T07:40:58.511Z,27.09
2023-08-13T07:43:24.977Z,27.12
2023-08-13T07:45:51.394Z,27.19
2023-08-13T07:48:17.858Z,27.19
2023-08-13T07:50:44.230Z,27.25
2023-08-13T07:53:10.798Z,27.18
2023-08-13T07:55:37.276Z,27.19
2023-08-13T07:58:03.753Z,27.17
2023-08-13T08:00:30.196Z,27.05
2023-08-13T08:02:56.647Z,27.16
2023-08-13T08:05:23.052Z,27.09
2023-08-13T08:07:49.485Z,27.26
2023-08-13T08:10:15.926Z,27.22
2023-08-13T08:12:42.392Z,27.25
2023-08-13T08:15:08.811Z,27.30
2023-08-13T08:17:35.309Z,27.27
2023-08-13T08:20:01.805Z,27.20
2023-08-13T08:22:28.210Z,26.92
2023-08-13T08:24:54.584Z,26.94
2023-08-13T08:27:21.171Z,26.78
2023-08-13T08:29:47.636Z,26.71
2023-08-13T08:32:14.292Z,26.86
2023-08-13T08:34:40.946Z,26.72
2023-08-13T08:37:07.422Z,26.62
2023-08-13T08:39:33.896Z,26.73
2023-08-13T08:42:00.316Z,26.89
2023-08-13T08:44:26.768Z,26.89
2023-08-13T08:46:53.271Z,26.65
2023-08-13T08:49:19.752Z,26.73
2023-08-13T08:51:46.189Z,26.78
2023-08-13T08:54:12.599Z,26.90
2023-08-13T08:56:39.041Z,27.03
2023-08-13T08:59:05.479Z,26.96
2023-08-13T09:01:31.964Z,27.05
2023-08-13T09:03:58.449Z,27.01
2023-08-13T09:06:24.922Z,27.13
2023-08-13T09:08:51.362Z,27.13
2023-08-13T09:11:17.791Z,27.16
2023-08-13T09:13:44.189Z,27.15
2023-08-13T09:16:10.613Z,27.10
2023-08-13T09:18:37.073Z,27.26
2023-08-13T09:21:03.544Z,27.23
2023-08-13T09:23:30.032Z,27.30
2023-08-13T09:25:56.457Z,27.39
2023-08-13T09:28:22.860Z,27.43
2023-08-13T09:30:49.257Z,27.41
2023-08-13T09:33:15.678Z,27.34
2023-08-13T09:35:42.128Z,27.48
2023-08-13T09:38:08.568Z,27.45
2023-08-13T09:40:34.971Z,27.40
2023-08-13T09:43:01.453Z,27.42
2023-08-13T09:45:27.865Z,27.31
2023-08-13T09:47:54.324Z,27.27
2023-08-13T09:50:20.711Z,27.40
2023-08-13T09:52:47.126Z,27.35
2023-08-13T09:55:13.532Z,27.39
2023-08-13T09:57:40.085Z,27.52
2023-08-13T10:00:06.607Z,27.54
2023-08-13T10:02:33.129Z,27.72
2023-08-13T10:04:59.674Z,27.78
2023-08-13T10:07:26.051Z,27.84
2023-08-13T10:10:06.339Z,27.90
2023-08-13T10:12:34.544Z,27.85
2023-08-13T10:15:00.956Z,27.92
2023-08-13T10:17:27.407Z,27.94
2023-08-13T10:19:53.801Z,27.90
2023-08-13T10:22:20.338Z,27.85
2023-08-13T10:24:46.906Z,27.84
2023-08-13T10:27:13.321Z,27.67
2023-08-13T10:29:39.824Z,27.53
2023-08-13T10:32:06.310Z,27.37
2023-08-13T10:34:32.749Z,27.45
2023-08-13T10:36:59.150Z,27.60
2023-08-13T10:39:25.550Z,27.48
2023-08-13T10:41:51.904Z,27.53
2023-08-13T10:44:18.258Z,27.72
2023-08-13T10:46:44.673Z,27.73
2023-08-13T10:49:11.072Z,27.84
2023-08-13T10:51:37.418Z,28.04
2023-08-13T10:54:03.797Z,27.97
2023-08-13T10:56:30.168Z,27.99
2023-08-13T10:58:56.544Z,27.86
2023-08-13T11:01:22.899Z,27.87
2023-08-13T11:03:49.485Z,27.85
2023-08-13T11:06:16.025Z,27.86
2023-08-13T11:08:47.946Z,27.66
2023-08-13T11:11:14.878Z,27.79
2023-08-13T11:13:41.359Z,27.74
2023-08-13T11:16:07.888Z,27.84
2023-08-13T11:18:34.363Z,27.78
2023-08-13T11:21:00.762Z,27.72
2023-08-13T11:23:27.206Z,27.74
2023-08-13T11:25:53.629Z,27.70
2023-08-13T11:28:20.090Z,27.56
2023-08-13T11:30:46.457Z,27.64
2023-08-13T11:33:12.901Z,27.82
2023-08-13T11:35:39.371Z,27.95
2023-08-13T11:38:05.821Z,27.55
2023-08-13T11:40:32.209Z,27.64
2023-08-13T11:42:58.618Z,27.69
2023-08-13T11:45:25.106Z,27.71
2023-08-13T11:47:51.593Z,27.79
2023-08-13T11:50:18.089Z,27.72
2023-08-13T11:52:44.495Z,27.60
2023-08-13T11:55:10.865Z,27.48
2023-08-13T11:57:37.235Z,27.58
2023-08-13T12:00:03.630Z,27.68
2023-08-13T12:02:30.108Z,27.70
2023-08-13T12:04:56.548Z,27.71
2023-08-13T12:07:22.980Z,27.68
2023-08-13T12:09:49.352Z,27.62
2023-08-13T12:12:16.044Z,27.61
2023-08-13T12:14:42.613Z,27.50
2023-08-13T12:17:08.977Z,27.53
2023-08-13T12:19:35.374Z,27.62
2023-08-13T12:22:01.821Z,27.41
2023-08-13T12:24:28.224Z,27.46
2023-08-13T12:26:54.640Z,27.64
2023-08-13T12:29:21.103Z,27.71
2023-08-13T12:31:47.520Z,27.52
2023-08-13T12:34:13.931Z,27.42
2023-08-13T12:36:40.377Z,27.36
2023-08-13T12:39:06.797Z,27.31
2023-08-13T12:41:39.773Z,27.33
2023-08-13T12:44:06.753Z,27.47
2023-08-13T12:46:33.228Z,27.41
2023-08-13T12:48:59.703Z,27.47
2023-08-13T12:51:26.144Z,27.48
2023-08-13T12:53:52.560Z,27.51
2023-08-13T12:56:19.029Z,27.39
2023-08-13T12:58:45.460Z,27.60
2023-08-13T13:01:12.100Z,27.42
2023-08-13T13:03:38.570Z,27.47
2023-08-13T13:06:05.005Z,27.27
2023-08-13T13:08:31.464Z,27.46
2023-08-13T13:10:57.829Z,27.44
2023-08-13T13:13:24.259Z,27.38
2023-08-13T13:15:50.730Z,27.24
2023-08-13T13:18:17.224Z,27.19
2023-08-13T13:20:43.611Z,27.28
2023-08-13T13:23:10.003Z,27.16
2023-08-13T13:25:36.366Z,27.21
2023-08-13T13:28:02.836Z,27.37
2023-08-13T13:30:29.318Z,27.46
2023-08-13T13:32:55.746Z,27.37
2023-08-13T13:35:22.167Z,27.42
2023-08-13T13:37:48.585Z,27.42
2023-08-13T13:40:15.040Z,27.35
2023-08-13T13:42:41.428Z,27.25
2023-08-13T13:45:07.913Z,27.25
2023-08-13T13:47:34.313Z,27.28
2023-08-13T13:50:00.765Z,27.35
2023-08-13T13:52:27.209Z,27.39
2023-08-13T13:54:53.648Z,27.40
2023-08-13T13:57:20.193Z,27.23
2023-08-13T13:59:46.708Z,27.39
2023-08-13T14:02:13.161Z,27.32
2023-08-13T14:04:39.602Z,27.34
2023-08-13T14:07:06.039Z,27.32
2023-08-13T14:09:32.454Z,27.30
2023-08-13T14:11:58.805Z,27.38
2023-08-13T14:14:25.151Z,27.22
2023-08-13T14:16:51.518Z,27.30
2023-08-13T14:19:17.940Z,27.36
2023-08-13T14:21:44.330Z,27.38
2023-08-13T14:24:10.737Z,27.50
2023-08-13T14:26:37.124Z,27.42
2023-08-13T14:29:03.488Z,27.37
2023-08-13T14:31:30.011Z,27.33
2023-08-13T14:33:56.383Z,27.42
2023-08-13T14:36:22.760Z,27.39
2023-08-13T14:38:49.193Z,27.30
2023-08-13T14:41:15.634Z,27.39
2023-08-13T14:43:42.080Z,27.19
2023-08-13T14:46:08.551Z,27.39
2023-08-13T14:48:34.988Z,27.32
2023-08-13T14:51:01.390Z,27.42
2023-08-13T14:53:27.835Z,27.48
2023-08-13T14:55:54.246Z,27.34
2023-08-13T14:58:20.700Z,27.37
2023-08-13T15:00:47.137Z,27.28
2023-08-13T15:03:13.720Z,27.49
2023-08-13T15:05:40.251Z,27.41
2023-08-13T15:08:06.698Z,27.43
2023-08-13T15:10:33.135Z,27.48
2023-08-13T15:12:59.565Z,27.54
2023-08-13T15:15:26.051Z,27.53
2023-08-13T15:17:52.573Z,27.60
2023-08-13T15:20:19.059Z,27.64
2023-08-13T15:22:45.479Z,27.43
2023-08-13T15:25:11.935Z,27.51
2023-08-13T15:27:38.386Z,27.56
2023-08-13T15:30:04.841Z,27.60
2023-08-13T15:32:31.251Z,27.67
2023-08-13T15:34:57.708Z,27.62
2023-08-13T15:37:24.152Z,27.48
2023-08-13T15:39:50.573Z,27.56
2023-08-13T15:42:17.275Z,27.57
2023-08-13T15:44:43.910Z,27.62
2023-08-13T15:47:10.324Z,27.51
2023-08-13T15:49:36.698Z,27.47
2023-08-13T15:52:03.080Z,27.60
2023-08-13T15:54:29.465Z,27.51
2023-08-13T15:56:55.827Z,27.54
2023-08-13T15:59:22.163Z,27.49
2023-08-13T16:01:48.588Z,27.48
2023-08-13T16:04:15.097Z,27.58
2023-08-13T16:06:41.598Z,27.48
2023-08-13T16:09:07.987Z,27.48
2023-08-13T16:11:34.447Z,27.46
2023-08-13T16:14:00.891Z,27.50
2023-08-13T16:16:27.335Z,27.47
2023-08-13T16:18:53.782Z,27.58
2023-08-13T16:21:20.209Z,27.36
2023-08-13T16:23:46.767Z,27.55
2023-08-13T16:26:14.083Z,27.49
2023-08-13T16:28:40.579Z,27.45
2023-08-13T16:31:07.086Z,27.49
2023-08-13T16:33:33.556Z,27.64
2023-08-13T16:35:59.956Z,27.52
2023-08-13T16:38:26.360Z,27.46
2023-08-13T16:40:52.736Z,27.55
2023-08-13T16:43:19.121Z,27.63
2023-08-13T16:45:45.499Z,27.64
2023-08-13T16:48:14.680Z,27.59
2023-08-13T16:50:43.024Z,27.61
2023-08-13T16:53:09.443Z,27.53
2023-08-13T16:55:35.822Z,27.60
2023-08-13T16:58:02.213Z,27.52
2023-08-13T17:00:28.660Z,27.57
2023-08-13T17:02:55.190Z,27.50
2023-08-13T17:05:21.662Z,27.50
2023-08-13T17:07:48.058Z,27.46
2023-08-13T17:10:14.486Z,27.43
2023-08-13T17:12:40.898Z,27.42
2023-08-13T17:15:17.534Z,27.40
2023-08-13T17:17:48.446Z,27.42
2023-08-13T17:20:14.830Z,27.39
2023-08-13T17:22:41.231Z,27.41
2023-08-13T17:25:07.622Z,27.39
2023-08-13T17:27:34.022Z,27.36
2023-08-13T17:30:00.436Z,27.42
2023-08-13T17:32:26.821Z,27.54
2023-08-13T17:34:53.213Z,27.59
2023-08-13T17:37:19.847Z,27.54
2023-08-13T17:39:46.434Z,27.56
2023-08-13T17:42:12.823Z,27.62
2023-08-13T17:44:39.207Z,27.58
2023-08-13T17:47:05.589Z,27.47
2023-08-13T17:49:31.952Z,27.56
2023-08-13T17:51:58.355Z,27.58
2023-08-13T17:54:24.730Z,27.55
2023-08-13T17:56:51.148Z,27.46
2023-08-13T17:59:17.534Z,27.45
2023-08-13T18:01:43.956Z,27.46
2023-08-13T18:04:10.335Z,27.53
2023-08-13T18:06:38.123Z,27.45
2023-08-13T18:09:06.196Z,27.42
2023-08-13T18:11:32.705Z,27.53
2023-08-13T18:13:59.105Z,27.33
2023-08-13T18:16:25.538Z,27.43
2023-08-13T18:18:51.917Z,27.44
2023-08-13T18:21:18.278Z,27.44
2023-08-13T18:23:44.680Z,27.61
2023-08-13T18:26:11.124Z,27.53
2023-08-13T18:28:37.482Z,27.47
2023-08-13T18:31:03.905Z,27.66
2023-08-13T18:33:30.392Z,27.55
2023-08-13T18:35:56.798Z,27.48
2023-08-13T18:38:23.174Z,27.38
2023-08-13T18:40:49.559Z,27.48
2023-08-13T18:43:15.992Z,27.43
2023-08-13T18:45:42.397Z,27.48
2023-08-13T18:48:08.838Z,27.54
2023-08-13T18:50:35.251Z,27.47
2023-08-13T18:53:01.782Z,27.52
2023-08-13T18:55:28.168Z,27.52
2023-08-13T18:57:54.565Z,27.48
2023-08-13T19:00:20.980Z,27.43
2023-08-13T19:02:47.415Z,27.48
2023-08-13T19:05:13.953Z,27.40
2023-08-13T19:07:40.329Z,27.34
2023-08-13T19:10:06.674Z,27.35
2023-08-13T19:12:33.031Z,27.27
2023-08-13T19:14:59.434Z,27.34
2023-08-13T19:17:25.912Z,27.21
2023-08-13T19:19:52.397Z,27.28
2023-08-13T19:22:19.001Z,27.37
2023-08-13T19:24:45.526Z,27.34
2023-08-13T19:27:11.934Z,27.45
2023-08-13T19:29:38.329Z,27.45
2023-08-13T19:32:04.696Z,27.48
2023-08-13T19:34:31.055Z,27.53
2023-08-13T19:36:57.414Z,27.47
2023-08-13T19:39:23.767Z,27.57
2023-08-13T19:41:50.184Z,27.55
2023-08-13T19:44:28.094Z,27.52
2023-08-13T19:47:03.019Z,27.53
2023-08-13T19:49:29.372Z,27.60
2023-08-13T19:51:55.742Z,27.55
2023-08-13T19:54:22.126Z,27.59
2023-08-13T19:56:48.498Z,27.53
2023-08-13T19:59:14.895Z,27.59
2023-08-13T20:01:41.345Z,27.58
2023-08-13T20:04:07.726Z,27.55
2023-08-13T20:06:34.284Z,27.59
2023-08-13T20:09:00.662Z,27.47
2023-08-13T20:11:27.023Z,27.48
2023-08-13T20:13:53.468Z,27.47
2023-08-13T20:16:19.856Z,27.63
2023-08-13T20:18:46.278Z,27.66
2023-08-13T20:21:12.638Z,27.62
2023-08-13T20:23:38.983Z,27.70
2023-08-13T20:26:05.333Z,27.72
2023-08-13T20:28:31.718Z,27.71
2023-08-13T20:30:58.109Z,27.71
2023-08-13T20:33:24.458Z,27.72
2023-08-13T20:35:50.849Z,27.73
2023-08-13T20:38:17.344Z,27.72
2023-08-13T20:40:43.715Z,27.74
2023-08-13T20:43:10.151Z,27.72
2023-08-13T20:45:36.672Z,27.70
2023-08-13T20:48:03.114Z,27.73
2023-08-13T20:50:29.560Z,27.70
2023-08-13T20:52:55.987Z,27.73
2023-08-13T20:55:22.376Z,27.73
2023-08-13T20:57:48.781Z,27.72
2023-08-13T21:00:15.318Z,27.75
2023-08-13T21:02:41.846Z,27.75
2023-08-13T21:05:08.334Z,27.71
2023-08-13T21:07:34.753Z,27.75
2023-08-13T21:10:01.187Z,27.68
2023-08-13T21:12:27.598Z,27.75
2023-08-13T21:14:53.982Z,27.73
2023-08-13T21:17:20.344Z,27.70
2023-08-13T21:19:46.760Z,27.65
2023-08-13T21:22:13.142Z,27.68
2023-08-13T21:24:39.602Z,27.70
2023-08-13T21:27:05.964Z,27.68
2023-08-13T21:29:32.306Z,27.75
2023-08-13T21:31:58.701Z,27.70
2023-08-13T21:34:25.063Z,27.68
2023-08-13T21:36:51.439Z,27.69
2023-08-13T21:39:18.134Z,27.73
2023-08-13T21:41:44.526Z,27.70
2023-08-13T21:44:10.884Z,27.70
2023-08-13T21:46:37.334Z,27.69
2023-08-13T21:49:03.818Z,27.70
2023-08-13T21:51:30.249Z,27.68
2023-08-13T21:53:56.760Z,27.68
2023-08-13T21:56:23.138Z,27.66
2023-08-13T21:58:49.545Z,27.68
2023-08-13T22:01:15.905Z,27.75
2023-08-13T22:03:42.441Z,27.77
2023-08-13T22:06:08.925Z,27.75
2023-08-13T22:08:35.335Z,27.68
2023-08-13T22:11:01.747Z,27.69
2023-08-13T22:13:28.132Z,27.77
2023-08-13T22:15:54.526Z,27.68
2023-08-13T22:18:20.966Z,27.66
2023-08-13T22:20:47.332Z,27.70
2023-08-13T22:23:14.854Z,27.67
2023-08-13T22:25:41.211Z,27.68
2023-08-13T22:28:07.604Z,27.77
2023-08-13T22:30:34.004Z,27.71
2023-08-13T22:33:00.479Z,27.68
2023-08-13T22:35:26.926Z,27.65
2023-08-13T22:37:53.308Z,27.64
2023-08-13T22:40:19.666Z,27.62
2023-08-13T22:42:46.076Z,27.73
2023-08-13T22:45:12.453Z,27.66
2023-08-13T22:47:38.871Z,27.69
2023-08-13T22:50:05.358Z,27.62
2023-08-13T22:52:31.793Z,27.65
2023-08-13T22:54:58.213Z,27.61
2023-08-13T22:57:24.659Z,27.68
2023-08-13T22:59:51.069Z,27.61
2023-08-13T23:02:17.698Z,27.56
2023-08-13T23:04:44.238Z,27.67
2023-08-13T23:07:10.673Z,27.51
2023-08-13T23:09:37.062Z,27.42
2023-08-13T23:12:03.461Z,27.36
2023-08-13T23:14:29.870Z,27.41
2023-08-13T23:16:56.257Z,27.26
2023-08-13T23:19:23.630Z,27.29
2023-08-13T23:21:49.963Z,27.39
2023-08-13T23:24:16.319Z,27.30
2023-08-13T23:26:42.709Z,27.36
2023-08-13T23:29:09.089Z,27.30
2023-08-13T23:31:35.489Z,27.33
2023-08-13T23:34:01.922Z,27.38
2023-08-13T23:36:28.286Z,27.37
2023-08-13T23:38:54.706Z,27.27
2023-08-13T23:41:21.067Z,27.28
2023-08-13T23:43:47.442Z,27.26
2023-08-13T23:46:13.836Z,27.36
2023-08-13T23:48:40.226Z,27.40
2023-08-13T23:51:06.625Z,27.34
2023-08-13T23:53:33.062Z,27.39
2023-08-13T23:55:59.501Z,27.48
2023-08-13T23:58:25.921Z,27.39
